MNMGMHTG

Guest
Details From MNMG - Managua Intl
To MHTG - Tegucigalpa Toncontin Intl
Flight Number -
Tags Routegen Generated
Created
Modified
Stats Distance 134 nm / 249 km
Max Altitude 500 ft / 152 m
Waypoints 11
Social Downloads 11
Likes 0
Share

Download

Looking for another format? Having issues loading an existing format? Contact us
Advertisement - Login to hide

Notes

Departing runway 27 MNMG. Arriving runway 1 MHTG.

Route

MNMG +12.15_-086.25 +12.18_-086.31 +12.22_-086.35 +12.27_-086.37 +12.89_-086.69 +13.83_-087.18 +13.87_-087.22 +13.93_-087.24 +13.98_-087.24 MHTG

ID Type Via Altitude (ft/m) Position (lat/lon) Dist (leg/tot) Name
O MNMG APT - 0 / 0 12.14274 / -86.17933 - / 0 nm
+12.15_-086.25 LATLON - 500 / 152 12.15099 / -86.25287 4 / 4 nm
+12.18_-086.31 LATLON - 500 / 152 12.17686 / -86.30585 3 / 7 nm
+12.22_-086.35 LATLON - 500 / 152 12.21888 / -86.34659 3 / 11 nm
+12.27_-086.37 LATLON - 500 / 152 12.27199 / -86.37016 3 / 14 nm
+12.89_-086.69 LATLON - 500 / 152 12.88880 / -86.68815 41 / 56 nm
+13.83_-087.18 LATLON - 500 / 152 13.82895 / -87.18225 63 / 119 nm
+13.87_-087.22 LATLON - 500 / 152 13.87256 / -87.22146 3 / 123 nm
+13.93_-087.24 LATLON - 500 / 152 13.92656 / -87.24295 3 / 126 nm
+13.98_-087.24 LATLON - 500 / 152 13.98445 / -87.24413 3 / 130 nm
O MHTG APT - 0 / 0 14.05292 / -87.22000 4 / 134 nm

Altitude Profile

Advertisement - Login to hide

MNMG

Details ICAO MNMG (MGA)
Name Managua-Augusto Cesar Sandino Intl
Region Nicaragua
Timezone America/Managua (UTC-6.0)
Stats Elevation 194 ft / 59 m (AMSL)
Location 12.141600° -86.168400°
Runways 1
Magnetic Variation 1.422° W

METAR

MNMG 142300Z 05010KT 9999 SCT025 33/21 Q1007 A2976 NOSIG

Decode

TAF

TAF TAF MNMG 141925Z 1418/1518 09012KT 9999 FEW024 BKN300 TEMPO 1501/1505 07006KT 6000 VCRA SCT012TCU SCT070 BECMG 1511/1514 08010KT 9999 FEW023 SCT300

Decode

Departure Runways

ID Width Length Bearing (true/mag) Surface Threshold Overrun Markings Lighting
10 151 ft / 46 m 8,019 ft / 2,444 m 96.50° / 97.92° ASPHALT 0 ft / 0 m 89 ft / 27 m PREC-APP EDGE THRESHOLD ALSF-I REIL-OMNI
28 151 ft / 46 m 8,019 ft / 2,444 m 276.50° / 277.93° ASPHALT 0 ft / 0 m 98 ft / 30 m PREC-APP EDGE THRESHOLD REIL-OMNI

MHTG

Details ICAO MHTG (TGU)
Name Toncontin Intl
Region Honduras
Timezone America/Tegucigalpa (UTC-6.0)
Stats Elevation 3,307 ft / 1,008 m (AMSL)
Location 14.060300° -87.217400°
Runways 1
Magnetic Variation 1.129° W

METAR

MHTG 142300Z 11007KT 9999 FEW034 SCT250 29/13 Q1015 A2997 NOSIG

Decode

TAF

TAF MHTG 141600Z 1418/1518 09006KT 9999 FEW030 TX31/1421Z TN18/1512Z BECMG 1501/1503 00000KT BECMG 1510/1512 02004KT

Decode

Destination Runways

ID Width Length Bearing (true/mag) Surface Threshold Overrun Markings Lighting
02 151 ft / 46 m 6,637 ft / 2,023 m 18.85° / 19.98° ASPHALT 1,161 ft / 354 m 187 ft / 57 m APP EDGE THRESHOLD REIL-OMNI
20 151 ft / 46 m 6,637 ft / 2,023 m 198.85° / 199.98° ASPHALT 0 ft / 0 m 239 ft / 73 m APP EDGE THRESHOLD REIL-OMNI

Popular Alternatives